Time;durP1;ratioP1;P1;durP2;ratioP2;P2;SDS_P1;SDS_P2;PMS_P1;PMS_P2;Temp;Humidity;BMP_temperature;BMP_pressure;BME280_temperature;BME280_humidity;BME280_pressure;Samples;Min_cycle;Max_cycle;Signal;HPM_P1;HPM_P2
2021/09/08 00:04:10;;;;;;;12.46;6.87;;;;;;;;;;370231;142;881616;-60
2021/09/08 00:05:11;;;;;;;14.34;7.50;;;;;;;;;;363493;146;857769;-59
2021/09/08 00:06:13;;;;;;;12.66;7.17;;;;;;;;;;364171;147;866042;-60
2021/09/08 00:07:14;;;;;;;14.99;7.71;;;;;;;;;;362676;146;857346;-60
2021/09/08 00:08:16;;;;;;;11.50;6.88;;;;;;;;;;361138;146;859592;-59
2021/09/08 00:09:18;;;;;;;13.79;7.61;;;;;;;;;;362043;147;867735;-60
2021/09/08 00:10:19;;;;;;;13.01;7.29;;;;;;;;;;363583;146;866340;-59
2021/09/08 00:11:21;;;;;;;12.85;7.00;;;;;;;;;;362364;147;865754;-59
2021/09/08 00:12:23;;;;;;;12.94;7.01;;;;;;;;;;364134;146;865883;-60
2021/09/08 00:13:25;;;;;;;13.76;7.35;;;;;;;;;;363878;147;865624;-59
2021/09/08 00:14:26;;;;;;;13.49;7.69;;;;;;;;;;361269;147;864849;-59
2021/09/08 00:15:28;;;;;;;11.56;6.40;;;;;;;;;;363569;146;857390;-60
2021/09/08 00:16:30;;;;;;;12.96;7.33;;;;;;;;;;362696;147;861899;-59
2021/09/08 00:17:32;;;;;;;12.08;6.81;;;;;;;;;;362369;147;866604;-59
2021/09/08 00:18:34;;;;;;;12.76;6.93;;;;;;;;;;363228;146;858259;-60
2021/09/08 00:19:35;;;;;;;11.94;7.47;;;;;;;;;;364858;146;866860;-60
2021/09/08 00:20:37;;;;;;;10.83;6.96;;;;;;;;;;360902;147;859234;-58
2021/09/08 00:21:39;;;;;;;12.98;7.41;;;;;;;;;;361856;147;857344;-59
2021/09/08 00:22:41;;;;;;;13.41;7.14;;;;;;;;;;363073;146;865693;-60
2021/09/08 00:23:43;;;;;;;14.25;6.84;;;;;;;;;;361043;146;859398;-60
2021/09/08 00:24:44;;;;;;;11.11;6.88;;;;;;;;;;359856;147;857315;-61
2021/09/08 00:25:46;;;;;;;11.02;6.89;;;;;;;;;;363359;147;866762;-60
2021/09/08 00:26:47;;;;;;;14.70;7.44;;;;;;;;;;361931;146;857215;-60
2021/09/08 00:27:49;;;;;;;11.75;6.97;;;;;;;;;;363558;147;865961;-60
2021/09/08 00:28:51;;;;;;;13.87;7.52;;;;;;;;;;361024;147;858180;-60
2021/09/08 00:29:53;;;;;;;12.46;7.10;;;;;;;;;;362909;146;856407;-60
2021/09/08 00:30:56;;;;;;;14.07;6.78;;;;;;;;;;360912;146;859524;-60
2021/09/08 00:31:57;;;;;;;11.04;6.94;;;;;;;;;;362387;147;857227;-60
2021/09/08 00:32:59;;;;;;;14.26;7.45;;;;;;;;;;362514;147;857906;-60
2021/09/08 00:34:01;;;;;;;11.85;7.34;;;;;;;;;;361438;146;865066;-59
2021/09/08 00:35:03;;;;;;;16.14;6.86;;;;;;;;;;362348;147;857422;-59
2021/09/08 00:36:04;;;;;;;14.12;7.33;;;;;;;;;;363322;147;857476;-59
2021/09/08 00:37:06;;;;;;;13.21;7.05;;;;;;;;;;363300;146;858188;-60
2021/09/08 00:38:11;;;;;;;13.58;7.11;;;;;;;;;;361662;146;858554;-61
2021/09/08 00:39:12;;;;;;;12.93;7.19;;;;;;;;;;361825;147;859923;-59
2021/09/08 00:40:14;;;;;;;11.25;7.09;;;;;;;;;;363353;147;857729;-59
2021/09/08 00:41:18;;;;;;;18.18;6.66;;;;;;;;;;362541;146;857421;-59
2021/09/08 00:42:20;;;;;;;11.13;6.87;;;;;;;;;;361348;147;865167;-59
2021/09/08 00:43:21;;;;;;;13.79;7.43;;;;;;;;;;361694;147;858872;-59
2021/09/08 00:44:26;;;;;;;12.70;6.81;;;;;;;;;;363845;147;861712;-60
2021/09/08 00:45:28;;;;;;;13.58;6.73;;;;;;;;;;355984;149;857372;-59
2021/09/08 00:46:30;;;;;;;12.14;6.75;;;;;;;;;;360598;147;857785;-59
2021/09/08 00:47:31;;;;;;;13.57;7.10;;;;;;;;;;360895;147;857821;-60
2021/09/08 00:48:33;;;;;;;11.80;7.07;;;;;;;;;;361306;146;865136;-59
2021/09/08 00:49:34;;;;;;;12.23;7.31;;;;;;;;;;361558;146;859299;-59
2021/09/08 00:50:37;;;;;;;14.26;7.04;;;;;;;;;;361466;147;865135;-59
2021/09/08 00:51:39;;;;;;;13.07;6.98;;;;;;;;;;361031;147;857342;-60
2021/09/08 00:52:41;;;;;;;14.89;7.12;;;;;;;;;;362765;146;866004;-60
2021/09/08 00:53:42;;;;;;;15.63;7.52;;;;;;;;;;361088;147;865785;-60
2021/09/08 00:54:47;;;;;;;11.71;6.45;;;;;;;;;;361368;149;865936;-60
2021/09/08 00:55:49;;;;;;;12.64;7.01;;;;;;;;;;364268;147;865454;-60
2021/09/08 00:56:53;;;;;;;11.86;6.90;;;;;;;;;;361581;146;857359;-59
2021/09/08 00:57:54;;;;;;;13.89;7.47;;;;;;;;;;365926;147;857292;-60
2021/09/08 00:58:56;;;;;;;12.03;7.19;;;;;;;;;;365382;141;857313;-60
2021/09/08 00:59:57;;;;;;;11.98;7.39;;;;;;;;;;372965;140;866790;-60
2021/09/08 01:00:59;;;;;;;13.79;7.27;;;;;;;;;;368339;144;858846;-60
2021/09/08 01:02:01;;;;;;;13.20;6.73;;;;;;;;;;370057;143;865767;-60
2021/09/08 01:03:02;;;;;;;14.06;7.15;;;;;;;;;;370738;142;864005;-60
2021/09/08 01:04:04;;;;;;;18.11;7.08;;;;;;;;;;370300;143;856082;-60
2021/09/08 01:05:06;;;;;;;11.81;6.41;;;;;;;;;;370845;142;863861;-60
2021/09/08 01:06:07;;;;;;;11.59;7.00;;;;;;;;;;369911;142;856123;-59
2021/09/08 01:07:09;;;;;;;11.00;6.71;;;;;;;;;;371470;143;863884;-59
2021/09/08 01:08:10;;;;;;;9.81;6.23;;;;;;;;;;370817;144;864032;-60
2021/09/08 01:09:12;;;;;;;10.01;6.35;;;;;;;;;;371689;142;856813;-59
2021/09/08 01:10:14;;;;;;;15.51;6.84;;;;;;;;;;371142;143;856426;-59
2021/09/08 01:11:15;;;;;;;11.74;6.36;;;;;;;;;;370029;143;856439;-60
2021/09/08 01:12:17;;;;;;;11.75;7.14;;;;;;;;;;370875;143;856383;-60
2021/09/08 01:13:18;;;;;;;15.45;7.12;;;;;;;;;;370442;145;856833;-59
2021/09/08 01:14:20;;;;;;;12.45;6.57;;;;;;;;;;372566;142;858173;-59
2021/09/08 01:15:22;;;;;;;10.56;6.69;;;;;;;;;;370578;143;856189;-59
2021/09/08 01:16:23;;;;;;;11.26;6.22;;;;;;;;;;369987;143;863734;-59
2021/09/08 01:17:25;;;;;;;13.69;6.84;;;;;;;;;;372681;142;856807;-60
2021/09/08 01:18:26;;;;;;;12.74;6.61;;;;;;;;;;370723;142;856302;-59
2021/09/08 01:19:28;;;;;;;10.11;5.94;;;;;;;;;;370496;143;856132;-59
2021/09/08 01:20:30;;;;;;;11.65;6.77;;;;;;;;;;371053;143;856030;-59
2021/09/08 01:21:32;;;;;;;12.04;6.18;;;;;;;;;;370904;143;857585;-60
2021/09/08 01:24:15;;;;;;;11.74;5.72;;;;;;;9.10;62.77;100959.31;372187;142;883175;-59
2021/09/08 01:25:22;;;;;;;11.98;6.56;;;;;;;9.03;62.96;100960.95;362654;147;858336;-60
2021/09/08 01:26:24;;;;;;;9.76;6.43;;;;;;;9.02;62.71;100968.66;365407;146;857665;-59
2021/09/08 01:27:26;;;;;;;11.39;6.62;;;;;;;9.02;62.85;100966.08;362411;147;857182;-60
2021/09/08 01:28:28;;;;;;;12.34;6.68;;;;;;;8.99;62.77;100959.14;364087;147;858887;-59
2021/09/08 01:29:30;;;;;;;10.21;5.73;;;;;;;8.98;62.96;100961.72;363801;147;865948;-59
2021/09/08 01:30:32;;;;;;;14.97;6.68;;;;;;;8.99;62.86;100963.45;361812;147;865051;-59
2021/09/08 01:31:34;;;;;;;13.07;6.57;;;;;;;8.98;62.73;100957.41;363772;147;857233;-59
2021/09/08 01:32:36;;;;;;;11.13;6.35;;;;;;;8.99;62.38;100953.97;364009;147;859578;-59
2021/09/08 01:33:37;;;;;;;11.49;6.23;;;;;;;8.99;62.32;100953.13;363316;146;858994;-59
2021/09/08 01:34:39;;;;;;;9.96;5.76;;;;;;;9.02;62.71;100959.22;363594;147;857301;-60
2021/09/08 01:35:41;;;;;;;14.17;6.14;;;;;;;9.03;62.77;100957.48;365177;147;865902;-60
2021/09/08 01:36:44;;;;;;;10.56;6.47;;;;;;;9.01;62.70;100952.31;362053;146;865139;-60
2021/09/08 01:37:46;;;;;;;11.02;6.17;;;;;;;;;;365863;147;859258;-60
2021/09/08 01:38:48;;;;;;;12.03;6.52;;;;;;;;;;365842;147;866471;-59
2021/09/08 01:39:49;;;;;;;8.94;6.01;;;;;;;;;;363951;147;857532;-59
2021/09/08 01:40:51;;;;;;;11.99;6.17;;;;;;;;;;361964;146;857520;-60
2021/09/08 01:41:53;;;;;;;12.83;6.56;;;;;;;;;;365080;147;857314;-59
2021/09/08 01:42:54;;;;;;;11.58;6.24;;;;;;;;;;364722;147;857261;-59
2021/09/08 01:43:56;;;;;;;10.81;5.78;;;;;;;;;;364102;147;858544;-60
2021/09/08 01:44:57;;;;;;;11.46;6.41;;;;;;;;;;361069;146;864918;-60
2021/09/08 01:45:59;;;;;;;10.37;6.00;;;;;;;;;;364389;147;857235;-60
2021/09/08 01:47:01;;;;;;;12.70;6.16;;;;;;;;;;363500;147;857294;-59
2021/09/08 01:48:03;;;;;;;9.99;5.61;;;;;;;;;;362634;146;859477;-59
2021/09/08 01:49:05;;;;;;;11.13;6.05;;;;;;;;;;360446;147;865416;-59
2021/09/08 01:50:07;;;;;;;14.58;6.33;;;;;;;;;;361238;147;857284;-59
2021/09/08 01:51:09;;;;;;;14.42;6.24;;;;;;;;;;363925;146;865801;-60
2021/09/08 01:52:10;;;;;;;11.59;6.21;;;;;;;;;;361300;146;859161;-59
2021/09/08 01:53:12;;;;;;;13.76;6.64;;;;;;;;;;363804;147;857636;-59
2021/09/08 01:54:14;;;;;;;11.25;6.55;;;;;;;;;;363531;147;865122;-59
2021/09/08 01:55:16;;;;;;;13.33;7.01;;;;;;;;;;362971;146;857270;-60
2021/09/08 01:56:17;;;;;;;10.40;5.89;;;;;;;;;;364435;147;857462;-60
2021/09/08 01:57:19;;;;;;;12.09;6.14;;;;;;;;;;364078;147;866132;-59
2021/09/08 01:58:20;;;;;;;13.04;6.02;;;;;;;;;;362781;147;858929;-59
2021/09/08 01:59:22;;;;;;;11.21;6.59;;;;;;;;;;364199;146;866011;-59
2021/09/08 02:00:26;;;;;;;10.32;6.35;;;;;;;;;;361953;147;859598;-59
2021/09/08 02:01:28;;;;;;;11.07;6.55;;;;;;;;;;364465;147;858814;-59
2021/09/08 02:02:29;;;;;;;10.06;5.94;;;;;;;;;;363137;147;857321;-60
2021/09/08 02:03:31;;;;;;;14.03;6.69;;;;;;;;;;363578;147;863795;-59
2021/09/08 02:04:32;;;;;;;14.79;6.81;;;;;;;;;;364259;147;863800;-60
2021/09/08 02:05:34;;;;;;;10.34;6.49;;;;;;;;;;361466;147;856166;-59
2021/09/08 02:06:36;;;;;;;12.14;6.69;;;;;;;;;;363092;146;856135;-60
2021/09/08 02:07:37;;;;;;;9.36;5.57;;;;;;;;;;358053;150;856120;-59
2021/09/08 02:08:39;;;;;;;10.91;6.01;;;;;;;;;;355897;150;856269;-60
2021/09/08 02:09:40;;;;;;;13.56;6.37;;;;;;;;;;364324;147;856163;-60
2021/09/08 02:10:43;;;;;;;11.63;6.54;;;;;;;;;;362699;146;856118;-60
2021/09/08 02:11:45;;;;;;;11.08;6.41;;;;;;;;;;362852;147;863934;-60
2021/09/08 02:12:46;;;;;;;12.19;6.05;;;;;;;;;;364194;147;856315;-59
2021/09/08 02:13:48;;;;;;;13.11;6.22;;;;;;;;;;364768;147;856492;-59
2021/09/08 02:14:50;;;;;;;13.68;6.41;;;;;;;;;;357511;150;856159;-59
2021/09/08 02:15:51;;;;;;;10.60;5.82;;;;;;;;;;364825;147;864382;-60
2021/09/08 02:16:53;;;;;;;12.12;6.01;;;;;;;;;;363931;147;863882;-60
2021/09/08 02:17:54;;;;;;;13.74;6.69;;;;;;;;;;361521;146;863766;-59
2021/09/08 02:18:56;;;;;;;13.88;6.01;;;;;;;;;;362992;147;856465;-60
2021/09/08 02:19:57;;;;;;;12.16;6.09;;;;;;;;;;364666;147;856356;-60
2021/09/08 02:20:59;;;;;;;12.61;7.05;;;;;;;;;;364893;147;856116;-60
2021/09/08 02:23:55;;;;;;;8.88;5.74;;;;;;;;;;372128;141;880180;-60
2021/09/08 02:24:57;;;;;;;11.95;5.50;;;;;;;;;;364792;146;857667;-59
2021/09/08 02:25:59;;;;;;;14.69;5.94;;;;;;;;;;366166;147;860613;-59
2021/09/08 02:27:00;;;;;;;13.04;6.35;;;;;;;;;;361414;146;865629;-59
2021/09/08 02:28:02;;;;;;;11.69;6.44;;;;;;;;;;364331;146;865126;-60
2021/09/08 02:29:03;;;;;;;12.30;6.00;;;;;;;;;;364500;147;857309;-60
2021/09/08 02:30:06;;;;;;;12.40;6.09;;;;;;;;;;365825;147;864940;-60
2021/09/08 02:31:08;;;;;;;12.74;6.37;;;;;;;;;;365613;147;865044;-59
2021/09/08 02:32:09;;;;;;;11.85;6.38;;;;;;;;;;364597;147;857361;-59
2021/09/08 02:33:11;;;;;;;11.09;6.06;;;;;;;;;;363661;147;857360;-60
2021/09/08 02:34:12;;;;;;;15.10;6.84;;;;;;;;;;366046;147;858433;-60
2021/09/08 02:35:14;;;;;;;12.49;6.14;;;;;;;;;;365547;147;859887;-59
2021/09/08 02:36:16;;;;;;;10.44;5.80;;;;;;;;;;364318;147;867840;-60
2021/09/08 02:37:18;;;;;;;10.88;5.75;;;;;;;;;;364923;147;858843;-60
2021/09/08 02:38:19;;;;;;;11.42;6.04;;;;;;;;;;365924;147;865568;-60
2021/09/08 02:39:21;;;;;;;12.94;6.36;;;;;;;;;;365901;146;857152;-59
2021/09/08 02:40:23;;;;;;;12.60;6.04;;;;;;;;;;364779;146;857642;-59
2021/09/08 02:41:24;;;;;;;13.37;6.97;;;;;;;;;;362375;147;865045;-60
2021/09/08 02:42:26;;;;;;;11.33;6.13;;;;;;;;;;357950;147;865508;-60
2021/09/08 02:43:27;;;;;;;11.81;6.51;;;;;;;;;;357110;147;865094;-59
2021/09/08 02:44:29;;;;;;;14.00;6.49;;;;;;;;;;358131;147;867121;-59
2021/09/08 02:45:30;;;;;;;10.49;6.01;;;;;;;;;;357244;149;860528;-60
2021/09/08 02:46:32;;;;;;;12.46;6.75;;;;;;;;;;357609;147;860020;-59
2021/09/08 03:04:18;;;;;;;12.06;6.02;;;;;;;9.33;63.13;100946.72;371557;142;881973;-59
2021/09/08 03:05:19;;;;;;;11.14;5.73;;;;;;;9.25;62.98;100947.45;363565;147;858105;-59
2021/09/08 03:06:21;;;;;;;12.43;6.03;;;;;;;9.24;62.47;100951.77;365314;145;857177;-59
2021/09/08 03:07:23;;;;;;;12.57;6.24;;;;;;;9.22;62.47;100948.30;364441;146;857190;-60
2021/09/08 03:08:25;;;;;;;12.02;6.05;;;;;;;9.23;61.67;100949.14;364241;147;864886;-60
2021/09/08 03:09:26;;;;;;;10.26;5.76;;;;;;;9.23;61.67;100949.14;364012;145;865442;-60
2021/09/08 03:10:31;;;;;;;11.33;6.28;;;;;;;9.23;61.67;100949.14;366123;147;864890;-59
2021/09/08 03:11:32;;;;;;;12.76;6.04;;;;;;;9.27;61.42;100945.75;365632;147;858721;-60
2021/09/08 03:12:34;;;;;;;13.59;5.83;;;;;;;9.29;60.79;100946.64;365781;145;865142;-60
2021/09/08 03:13:36;;;;;;;12.11;5.89;;;;;;;9.30;60.38;100948.38;363460;145;857454;-60
2021/09/08 03:14:38;;;;;;;12.74;5.76;;;;;;;9.30;60.12;100944.09;365310;145;857274;-60
2021/09/08 03:15:39;;;;;;;14.05;6.06;;;;;;;9.31;59.99;100947.53;363628;145;865075;-61
2021/09/08 03:16:41;;;;;;;11.09;5.75;;;;;;;9.32;59.72;100944.10;364030;146;864946;-60
2021/09/08 03:17:43;;;;;;;14.74;6.47;;;;;;;9.32;59.72;100944.10;361019;147;857322;-60
2021/09/08 03:18:45;;;;;;;10.29;5.74;;;;;;;9.34;60.50;100952.73;361921;146;857322;-60
2021/09/08 03:19:46;;;;;;;11.96;6.04;;;;;;;9.33;61.23;100948.42;363317;146;865063;-59
2021/09/08 03:20:48;;;;;;;10.43;5.51;;;;;;;9.34;61.14;100953.62;364527;145;865648;-60
2021/09/08 03:21:50;;;;;;;11.37;6.28;;;;;;;9.34;61.14;100953.62;363090;147;857378;-60
2021/09/08 03:22:52;;;;;;;10.14;5.69;;;;;;;9.29;60.46;100955.28;359860;147;866099;-60
2021/09/08 03:23:55;;;;;;;10.37;5.98;;;;;;;9.27;61.46;100951.81;359493;147;866803;-59
2021/09/08 03:24:57;;;;;;;9.48;6.16;;;;;;;9.27;61.70;100956.09;360405;147;865142;-59
2021/09/08 03:25:59;;;;;;;8.35;5.18;;;;;;;9.26;61.91;100955.23;356754;147;857371;-59
2021/09/08 03:27:01;;;;;;;14.40;6.43;;;;;;;9.25;62.38;100945.75;359348;146;865361;-60
2021/09/08 03:28:03;;;;;;;10.43;5.88;;;;;;;9.25;62.00;100947.45;360392;147;857426;-58
2021/09/08 03:29:05;;;;;;;11.33;5.77;;;;;;;9.25;61.72;100947.45;356490;149;865062;-59
2021/09/08 03:30:08;;;;;;;8.71;5.89;;;;;;;9.21;62.24;100947.41;360296;148;857443;-59
2021/09/08 03:31:10;;;;;;;10.85;5.65;;;;;;;9.22;62.67;100950.88;358114;148;857327;-60
2021/09/08 03:32:11;;;;;;;12.99;5.83;;;;;;;9.22;62.78;100945.71;359051;147;857396;-59
2021/09/08 03:33:15;;;;;;;12.43;6.00;;;;;;;9.21;62.74;100952.58;365991;147;865151;-60
2021/09/08 03:34:17;;;;;;;13.04;6.57;;;;;;;9.20;62.41;100945.67;358572;147;865702;-59
2021/09/08 03:35:20;;;;;;;11.16;5.90;;;;;;;9.19;62.78;100954.27;356944;147;865227;-59
2021/09/08 03:36:22;;;;;;;13.98;5.92;;;;;;;9.21;62.86;100957.74;354339;149;866079;-58
2021/09/08 03:37:24;;;;;;;12.67;5.67;;;;;;;9.21;62.97;100959.48;356125;147;857372;-60
2021/09/08 03:38:26;;;;;;;11.97;5.93;;;;;;;9.19;62.65;100956.86;359246;147;864998;-59
2021/09/08 03:39:28;;;;;;;12.46;5.51;;;;;;;9.19;62.77;100956.86;360915;147;864927;-58
2021/09/08 03:44:59;;;;;;;10.31;5.69;;;;;;;9.20;62.59;100962.91;375861;141;881361;-60
2021/09/08 03:46:04;;;;;;;11.99;5.59;;;;;;;9.11;62.77;100958.47;366063;144;860594;-60
2021/09/08 03:47:05;;;;;;;10.45;5.71;;;;;;;9.10;62.84;100961.89;367189;144;857850;-60
2021/09/08 03:48:06;;;;;;;9.53;5.55;;;;;;;9.10;62.22;100961.89;367414;144;858557;-61
2021/09/08 03:49:08;;;;;;;13.09;5.61;;;;;;;9.13;62.20;100954.19;366744;144;858853;-60
2021/09/08 03:50:10;;;;;;;10.25;5.77;;;;;;;9.16;62.41;100958.55;367800;144;866006;-60
2021/09/08 03:51:12;;;;;;;11.63;5.80;;;;;;;9.15;62.48;100957.66;367322;144;858353;-60
2021/09/08 03:52:14;;;;;;;9.11;5.69;;;;;;;9.15;62.48;100957.66;367541;144;858329;-60
2021/09/08 03:53:16;;;;;;;10.35;6.09;;;;;;;9.15;62.65;100961.98;366162;144;866163;-60
2021/09/08 03:54:18;;;;;;;9.04;5.77;;;;;;;9.15;62.73;100954.22;366972;144;857448;-60
2021/09/08 03:55:20;;;;;;;9.41;5.71;;;;;;;9.14;62.89;100955.92;367721;144;865605;-60
2021/09/08 03:56:22;;;;;;;10.65;5.49;;;;;;;9.12;62.83;100955.03;366172;144;866040;-60
2021/09/08 03:57:24;;;;;;;13.11;6.14;;;;;;;9.08;62.95;100963.59;366636;144;857227;-59
2021/09/08 03:58:25;;;;;;;11.26;5.51;;;;;;;;;;370770;144;865024;-60
2021/09/08 03:59:27;;;;;;;16.86;6.26;;;;;;;;;;367902;144;865084;-60
2021/09/08 04:00:28;;;;;;;13.15;6.29;;;;;;;;;;366850;144;857245;-61
2021/09/08 04:01:30;;;;;;;15.38;6.54;;;;;;;;;;367606;144;865856;-60
2021/09/08 04:02:32;;;;;;;11.10;5.44;;;;;;;;;;369757;144;858176;-60
2021/09/08 04:03:33;;;;;;;10.38;5.86;;;;;;;;;;365693;144;866825;-60
2021/09/08 04:04:35;;;;;;;10.46;5.91;;;;;;;;;;366725;144;866261;-59
2021/09/08 04:05:36;;;;;;;15.17;6.31;;;;;;;;;;368342;144;865760;-59
2021/09/08 04:06:38;;;;;;;11.34;5.52;;;;;;;;;;365888;144;859138;-59
2021/09/08 04:07:40;;;;;;;9.96;5.14;;;;;;;;;;365631;144;865025;-59
2021/09/08 04:08:41;;;;;;;11.77;6.06;;;;;;;;;;367468;144;865009;-59
2021/09/08 04:09:43;;;;;;;9.69;5.51;;;;;;;;;;367094;144;859226;-59
2021/09/08 04:10:45;;;;;;;9.71;5.53;;;;;;;;;;365949;144;861417;-60
2021/09/08 04:11:47;;;;;;;11.82;6.04;;;;;;;;;;366261;144;858781;-59
2021/09/08 04:12:48;;;;;;;10.68;6.29;;;;;;;;;;366245;144;859369;-59
2021/09/08 04:13:50;;;;;;;10.40;5.91;;;;;;;;;;366844;144;857831;-59
2021/09/08 04:14:53;;;;;;;10.97;5.99;;;;;;;;;;366968;144;866710;-59
2021/09/08 04:15:55;;;;;;;10.04;5.77;;;;;;;;;;367362;144;866440;-59
2021/09/08 04:16:57;;;;;;;11.38;5.59;;;;;;;;;;369679;144;857340;-59
2021/09/08 04:17:59;;;;;;;17.06;5.99;;;;;;;;;;367682;144;865013;-59
2021/09/08 04:19:00;;;;;;;11.05;5.79;;;;;;;;;;368470;144;860445;-59
2021/09/08 04:20:02;;;;;;;8.79;5.52;;;;;;;;;;366096;144;858963;-59
2021/09/08 04:21:04;;;;;;;11.73;5.76;;;;;;;;;;369941;144;859022;-60
2021/09/08 04:22:06;;;;;;;14.06;6.22;;;;;;;;;;367525;144;858523;-59
2021/09/08 04:23:07;;;;;;;13.38;5.71;;;;;;;;;;367647;144;865523;-58
2021/09/08 04:24:09;;;;;;;11.80;5.89;;;;;;;;;;366074;144;865011;-60
2021/09/08 04:25:10;;;;;;;9.54;5.66;;;;;;;;;;367627;144;866989;-60
2021/09/08 04:26:14;;;;;;;11.18;5.76;;;;;;;;;;366114;144;866040;-60
2021/09/08 04:27:15;;;;;;;13.11;6.44;;;;;;;;;;365921;144;859106;-59
2021/09/08 04:28:17;;;;;;;11.34;5.70;;;;;;;;;;366700;144;859976;-59
2021/09/08 04:29:18;;;;;;;14.17;6.90;;;;;;;;;;357021;147;856665;-59
2021/09/08 04:30:21;;;;;;;16.43;5.98;;;;;;;;;;365977;144;857480;-60
2021/09/08 04:31:22;;;;;;;12.74;6.16;;;;;;;;;;366602;144;857216;-60
2021/09/08 04:32:24;;;;;;;19.37;6.87;;;;;;;;;;368000;144;865052;-61
2021/09/08 04:33:25;;;;;;;9.91;4.61;;;;;;;;;;366556;144;857233;-59
2021/09/08 04:34:27;;;;;;;10.45;4.34;;;;;;;;;;367951;144;857222;-58
2021/09/08 04:35:28;;;;;;;12.21;4.30;;;;;;;;;;367071;144;858270;-59
2021/09/08 04:36:32;;;;;;;11.18;5.29;;;;;;;;;;367950;144;865863;-60
2021/09/08 04:37:33;;;;;;;13.63;5.52;;;;;;;;;;367837;144;859462;-61
2021/09/08 04:38:37;;;;;;;9.95;3.91;;;;;;;;;;367278;144;858834;-60
2021/09/08 04:39:39;;;;;;;16.00;5.34;;;;;;;;;;366707;144;865147;-60
2021/09/08 04:40:42;;;;;;;8.94;4.08;;;;;;;;;;366080;144;859903;-59
2021/09/08 04:41:44;;;;;;;11.92;4.09;;;;;;;;;;365808;144;857926;-60
2021/09/08 04:42:45;;;;;;;9.84;4.46;;;;;;;;;;366107;144;857943;-60
2021/09/08 04:43:47;;;;;;;7.86;3.69;;;;;;;;;;367620;144;862224;-60
2021/09/08 04:44:49;;;;;;;9.67;5.19;;;;;;;;;;366198;144;859405;-60
2021/09/08 04:45:52;;;;;;;12.71;5.20;;;;;;;;;;367016;144;865527;-59
2021/09/08 04:46:54;;;;;;;12.67;4.89;;;;;;;;;;359187;148;857584;-58
2021/09/08 04:47:56;;;;;;;10.63;4.44;;;;;;;;;;358552;146;859719;-60
2021/09/08 04:48:58;;;;;;;7.42;4.52;;;;;;;;;;367862;144;865045;-59
2021/09/08 04:50:00;;;;;;;11.26;4.56;;;;;;;;;;366741;144;865079;-60
2021/09/08 04:51:01;;;;;;;10.52;4.78;;;;;;;;;;366843;144;858296;-59
2021/09/08 04:52:03;;;;;;;15.22;4.86;;;;;;;;;;366751;144;861198;-58
2021/09/08 04:53:05;;;;;;;4.86;2.79;;;;;;;;;;366485;144;859528;-59
2021/09/08 04:54:07;;;;;;;7.16;2.91;;;;;;;;;;366446;144;858371;-58
2021/09/08 04:55:10;;;;;;;7.46;3.13;;;;;;;;;;366711;144;864858;-59
2021/09/08 04:56:11;;;;;;;6.54;3.15;;;;;;;;;;369283;144;857267;-59
2021/09/08 04:57:13;;;;;;;8.29;3.35;;;;;;;;;;368108;144;857346;-59
2021/09/08 05:03:50;;;;;;;8.93;2.72;;;;;;;10.09;60.94;100939.84;372714;141;879013;-61
2021/09/08 05:04:52;;;;;;;6.49;2.80;;;;;;;10.04;61.00;100948.39;360768;147;857154;-61
2021/09/08 05:05:53;;;;;;;7.85;3.21;;;;;;;10.08;61.46;100950.19;365577;145;857405;-61
2021/09/08 05:06:56;;;;;;;13.20;4.56;;;;;;;10.14;61.64;100947.66;364953;146;865794;-60
2021/09/08 05:07:58;;;;;;;11.08;4.26;;;;;;;10.19;61.46;100951.16;364781;147;857919;-60
2021/09/08 05:08:59;;;;;;;5.40;2.61;;;;;;;10.26;61.45;100946.90;364428;147;865716;-59
2021/09/08 05:10:01;;;;;;;8.34;3.69;;;;;;;;;;364676;146;857402;-61
2021/09/08 05:11:04;;;;;;;8.35;3.22;;;;;;;;;;362964;147;864850;-61
2021/09/08 05:12:06;;;;;;;8.86;3.62;;;;;;;;;;361920;147;857277;-60
2021/09/08 05:13:08;;;;;;;9.42;3.71;;;;;;;;;;363410;147;857645;-63
2021/09/08 05:14:10;;;;;;;6.29;2.93;;;;;;;;;;361620;146;857275;-61
2021/09/08 05:15:11;;;;;;;5.75;3.09;;;;;;;;;;363300;147;857819;-61
2021/09/08 05:16:13;;;;;;;4.61;3.05;;;;;;;;;;361058;147;857613;-61
2021/09/08 05:17:15;;;;;;;6.10;2.76;;;;;;;;;;359240;146;860229;-60
2021/09/08 05:18:16;;;;;;;6.90;3.29;;;;;;;;;;364445;146;866234;-60
2021/09/08 05:19:18;;;;;;;9.51;4.49;;;;;;;;;;361750;147;864975;-59
2021/09/08 05:20:20;;;;;;;10.00;3.38;;;;;;;;;;362950;146;857756;-60
2021/09/08 05:21:22;;;;;;;7.49;3.08;;;;;;;;;;363569;146;857143;-60
2021/09/08 05:22:23;;;;;;;8.49;3.39;;;;;;;;;;359645;147;859217;-60
2021/09/08 05:23:25;;;;;;;6.72;3.16;;;;;;;;;;355926;150;858867;-59
2021/09/08 05:24:26;;;;;;;5.94;2.75;;;;;;;;;;356471;149;859112;-60
2021/09/08 05:25:28;;;;;;;7.66;3.85;;;;;;;;;;357635;149;865265;-61
2021/09/08 05:26:29;;;;;;;9.61;4.21;;;;;;;;;;356536;150;859812;-60
2021/09/08 05:27:31;;;;;;;13.60;3.83;;;;;;;;;;356652;149;865554;-60
2021/09/08 05:28:33;;;;;;;5.83;3.33;;;;;;;;;;358296;149;866756;-61
2021/09/08 05:29:34;;;;;;;9.94;3.66;;;;;;;;;;354426;150;863902;-60
2021/09/08 05:30:36;;;;;;;7.41;2.92;;;;;;;;;;355393;150;865505;-60
2021/09/08 05:31:37;;;;;;;8.74;3.85;;;;;;;;;;357582;149;866563;-60
2021/09/08 05:32:39;;;;;;;11.58;4.38;;;;;;;;;;356574;149;865762;-61
2021/09/08 05:33:41;;;;;;;6.65;3.99;;;;;;;;;;352278;153;858150;-61
2021/09/08 05:34:42;;;;;;;10.29;3.64;;;;;;;;;;356817;150;858560;-61
2021/09/08 05:35:44;;;;;;;6.15;3.01;;;;;;;;;;354787;149;857659;-60
2021/09/08 05:36:47;;;;;;;6.19;2.90;;;;;;;;;;350325;152;864784;-61
2021/09/08 05:37:49;;;;;;;8.68;4.87;;;;;;;;;;345516;150;858071;-61
2021/09/08 05:38:50;;;;;;;11.26;5.44;;;;;;;;;;356157;150;858183;-60
2021/09/08 05:39:52;;;;;;;11.51;4.36;;;;;;;;;;354008;150;857287;-61
2021/09/08 05:40:54;;;;;;;8.22;4.55;;;;;;;;;;354690;150;863996;-61
2021/09/08 05:41:55;;;;;;;10.20;4.16;;;;;;;;;;356684;150;857200;-61
2021/09/08 05:42:57;;;;;;;9.86;4.64;;;;;;;;;;356298;149;858234;-61
2021/09/08 05:43:58;;;;;;;11.16;4.94;;;;;;;;;;355115;150;860066;-61
2021/09/08 05:45:00;;;;;;;8.80;3.87;;;;;;;;;;355007;150;858873;-60
2021/09/08 05:46:02;;;;;;;7.08;3.81;;;;;;;;;;358120;149;857279;-61
2021/09/08 05:47:03;;;;;;;7.96;4.15;;;;;;;;;;355782;149;864933;-60
2021/09/08 05:48:05;;;;;;;7.15;3.59;;;;;;;;;;353372;150;857219;-60
2021/09/08 05:49:07;;;;;;;6.49;4.04;;;;;;;;;;355025;150;864839;-60
2021/09/08 05:50:09;;;;;;;9.18;5.16;;;;;;;;;;355959;149;865918;-60
2021/09/08 05:51:10;;;;;;;7.28;3.59;;;;;;;;;;355648;150;859009;-61
2021/09/08 05:52:12;;;;;;;7.95;4.07;;;;;;;;;;356929;150;860752;-60
2021/09/08 05:53:13;;;;;;;10.04;3.20;;;;;;;;;;356228;150;858848;-61
2021/09/08 05:54:15;;;;;;;11.11;4.41;;;;;;;;;;354572;149;858301;-60
2021/09/08 05:55:17;;;;;;;9.30;3.56;;;;;;;;;;357208;150;857261;-60
2021/09/08 05:56:18;;;;;;;8.62;4.24;;;;;;;;;;356408;150;857065;-61
2021/09/08 05:57:20;;;;;;;7.71;4.27;;;;;;;;;;355974;149;864900;-61
2021/09/08 05:58:22;;;;;;;6.86;3.14;;;;;;;;;;358277;150;857110;-60
2021/09/08 05:59:23;;;;;;;6.80;4.01;;;;;;;;;;355826;150;857167;-60
2021/09/08 06:00:25;;;;;;;9.64;4.01;;;;;;;;;;355573;150;864775;-58
2021/09/08 06:01:26;;;;;;;6.56;3.12;;;;;;;;;;357760;149;866781;-60
2021/09/08 06:02:28;;;;;;;7.88;3.83;;;;;;;;;;358728;150;858354;-60
2021/09/08 06:03:29;;;;;;;8.35;3.84;;;;;;;;;;358368;150;857229;-61
2021/09/08 06:04:31;;;;;;;7.39;3.71;;;;;;;;;;357799;149;859289;-61
2021/09/08 06:05:33;;;;;;;7.34;3.37;;;;;;;;;;358403;150;857316;-60
2021/09/08 06:06:34;;;;;;;9.64;3.99;;;;;;;;;;358745;150;864803;-60
2021/09/08 06:07:36;;;;;;;8.28;3.86;;;;;;;;;;356441;149;864942;-60
2021/09/08 06:08:38;;;;;;;9.86;4.33;;;;;;;;;;356279;149;857215;-59
2021/09/08 06:09:39;;;;;;;10.70;3.94;;;;;;;;;;355288;150;864806;-60
2021/09/08 06:10:41;;;;;;;10.62;3.56;;;;;;;;;;354682;150;857317;-60
2021/09/08 06:11:42;;;;;;;5.26;3.25;;;;;;;;;;357546;149;866829;-60
2021/09/08 06:12:44;;;;;;;6.08;3.19;;;;;;;;;;349685;151;857315;-62
2021/09/08 06:13:46;;;;;;;4.77;3.01;;;;;;;;;;349527;153;859478;-60
2021/09/08 06:14:47;;;;;;;5.81;3.06;;;;;;;;;;344576;154;868014;-60
2021/09/08 06:15:49;;;;;;;6.44;3.43;;;;;;;;;;350434;151;857287;-61
2021/09/08 06:16:52;;;;;;;7.09;3.10;;;;;;;;;;349798;153;857303;-61